sensor_id;sensor_type;location;lat;lon;timestamp;pressure;altitude;pressure_sealevel;temperature;humidity
45793;BME280;31495;42.740;22.908;2023-04-25T00:00:13;92347.84;;;9.97;83.58
45793;BME280;31495;42.740;22.908;2023-04-25T00:01:12;92335.94;;;9.84;83.21
45793;BME280;31495;42.740;22.908;2023-04-25T00:02:12;92320.44;;;9.72;82.61
45793;BME280;31495;42.740;22.908;2023-04-25T00:03:12;92298.53;;;9.51;81.89
45793;BME280;31495;42.740;22.908;2023-04-25T00:04:13;92358.88;;;9.92;81.91
45793;BME280;31495;42.740;22.908;2023-04-25T00:05:12;92367.94;;;9.95;82.59
45793;BME280;31495;42.740;22.908;2023-04-25T00:06:14;92329.19;;;9.71;82.88
45793;BME280;31495;42.740;22.908;2023-04-25T00:07:13;92368.75;;;9.96;83.94
45793;BME280;31495;42.740;22.908;2023-04-25T00:08:12;92371.91;;;9.98;84.26
45793;BME280;31495;42.740;22.908;2023-04-25T00:09:12;92359.53;;;10.00;84.32
45793;BME280;31495;42.740;22.908;2023-04-25T00:10:11;92352.78;;;9.87;84.29
45793;BME280;31495;42.740;22.908;2023-04-25T00:11:11;92324.47;;;9.80;84.33
45793;BME280;31495;42.740;22.908;2023-04-25T00:12:11;92327.63;;;9.70;84.45
45793;BME280;31495;42.740;22.908;2023-04-25T00:13:10;92358.97;;;9.98;84.24
45793;BME280;31495;42.740;22.908;2023-04-25T00:14:10;92334.03;;;9.68;84.55
45793;BME280;31495;42.740;22.908;2023-04-25T00:15:11;92325.72;;;9.66;84.77
45793;BME280;31495;42.740;22.908;2023-04-25T00:16:11;92342.09;;;9.71;85.24
45793;BME280;31495;42.740;22.908;2023-04-25T00:17:14;92337.59;;;9.67;85.23
45793;BME280;31495;42.740;22.908;2023-04-25T00:18:14;92341.78;;;9.68;85.26
45793;BME280;31495;42.740;22.908;2023-04-25T00:19:14;92342.09;;;9.71;85.39
45793;BME280;31495;42.740;22.908;2023-04-25T00:20:13;92311.13;;;9.60;85.10
45793;BME280;31495;42.740;22.908;2023-04-25T00:21:13;92305.16;;;9.59;83.81
45793;BME280;31495;42.740;22.908;2023-04-25T00:22:14;92352.78;;;9.87;83.80
45793;BME280;31495;42.740;22.908;2023-04-25T00:23:14;92361.78;;;9.84;83.71
45793;BME280;31495;42.740;22.908;2023-04-25T00:24:17;92348.16;;;9.77;83.59
45793;BME280;31495;42.740;22.908;2023-04-25T00:25:16;92324.59;;;9.73;83.71
45793;BME280;31495;42.740;22.908;2023-04-25T00:26:16;92334.59;;;9.82;83.39
45793;BME280;31495;42.740;22.908;2023-04-25T00:27:15;92341.13;;;9.84;83.44
45793;BME280;31495;42.740;22.908;2023-04-25T00:28:15;92355.03;;;9.95;83.19
45793;BME280;31495;42.740;22.908;2023-04-25T00:29:14;92352.56;;;9.88;82.99
45793;BME280;31495;42.740;22.908;2023-04-25T00:30:14;92341.22;;;9.78;83.20
45793;BME280;31495;42.740;22.908;2023-04-25T00:31:14;92320.53;;;9.54;83.88
45793;BME280;31495;42.740;22.908;2023-04-25T00:32:14;92327.72;;;9.64;83.95
45793;BME280;31495;42.740;22.908;2023-04-25T00:33:13;92326.28;;;9.68;83.26
45793;BME280;31495;42.740;22.908;2023-04-25T00:34:12;92343.81;;;9.78;82.87
45793;BME280;31495;42.740;22.908;2023-04-25T00:35:12;92345.38;;;9.79;83.10
45793;BME280;31495;42.740;22.908;2023-04-25T00:36:11;92345.13;;;9.80;82.90
45793;BME280;31495;42.740;22.908;2023-04-25T00:37:11;92347.72;;;9.80;83.23
45793;BME280;31495;42.740;22.908;2023-04-25T00:38:12;92325.03;;;9.70;83.12
45793;BME280;31495;42.740;22.908;2023-04-25T00:39:12;92317.16;;;9.65;83.19
45793;BME280;31495;42.740;22.908;2023-04-25T00:40:12;92312.56;;;9.67;83.33
45793;BME280;31495;42.740;22.908;2023-04-25T00:41:12;92276.06;;;9.40;83.48
45793;BME280;31495;42.740;22.908;2023-04-25T00:42:12;92328.97;;;9.73;83.51
45793;BME280;31495;42.740;22.908;2023-04-25T00:43:12;92340.63;;;9.75;83.55
45793;BME280;31495;42.740;22.908;2023-04-25T00:44:11;92337.94;;;9.70;84.12
45793;BME280;31495;42.740;22.908;2023-04-25T00:45:14;92349.63;;;9.73;84.04
45793;BME280;31495;42.740;22.908;2023-04-25T00:46:14;92349.63;;;9.73;84.32
45793;BME280;31495;42.740;22.908;2023-04-25T00:47:15;92350.75;;;9.65;84.13
45793;BME280;31495;42.740;22.908;2023-04-25T00:48:14;92319.75;;;9.42;84.20
45793;BME280;31495;42.740;22.908;2023-04-25T00:49:14;92344.69;;;9.48;84.03
45793;BME280;31495;42.740;22.908;2023-04-25T00:50:16;92340.41;;;9.42;84.41
45793;BME280;31495;42.740;22.908;2023-04-25T00:51:19;92316.22;;;9.24;84.65
45793;BME280;31495;42.740;22.908;2023-04-25T00:52:19;92329.25;;;9.29;85.04
45793;BME280;31495;42.740;22.908;2023-04-25T00:53:21;92335.78;;;9.44;85.25
45793;BME280;31495;42.740;22.908;2023-04-25T00:54:20;92329.03;;;9.43;85.28
45793;BME280;31495;42.740;22.908;2023-04-25T00:55:20;92331.63;;;9.43;85.27
45793;BME280;31495;42.740;22.908;2023-04-25T00:56:20;92323.97;;;9.36;85.27
45793;BME280;31495;42.740;22.908;2023-04-25T00:57:20;92327.47;;;9.42;84.96
45793;BME280;31495;42.740;22.908;2023-04-25T00:58:21;92333.66;;;9.41;84.89
45793;BME280;31495;42.740;22.908;2023-04-25T00:59:21;92322.41;;;9.35;84.76
45793;BME280;31495;42.740;22.908;2023-04-25T01:00:20;92312.63;;;9.25;84.75
45793;BME280;31495;42.740;22.908;2023-04-25T01:01:20;92334.88;;;9.38;84.72
45793;BME280;31495;42.740;22.908;2023-04-25T01:02:20;92323.84;;;9.31;84.57
45793;BME280;31495;42.740;22.908;2023-04-25T01:03:20;92332.53;;;9.36;84.15
45793;BME280;31495;42.740;22.908;2023-04-25T01:04:20;92263.84;;;8.93;84.30
45793;BME280;31495;42.740;22.908;2023-04-25T01:05:19;92312.06;;;9.23;84.06
45793;BME280;31495;42.740;22.908;2023-04-25T01:06:18;92321.81;;;9.21;83.74
45793;BME280;31495;42.740;22.908;2023-04-25T01:07:19;92328.00;;;9.20;83.89
45793;BME280;31495;42.740;22.908;2023-04-25T01:08:19;92290.25;;;8.95;84.11
45793;BME280;31495;42.740;22.908;2023-04-25T01:09:22;92278.53;;;8.81;84.35
45793;BME280;31495;42.740;22.908;2023-04-25T01:10:22;92322.00;;;9.08;84.23
45793;BME280;31495;42.740;22.908;2023-04-25T01:11:22;92320.09;;;9.03;84.52
45793;BME280;31495;42.740;22.908;2023-04-25T01:12:21;92294.00;;;8.81;84.75
45793;BME280;31495;42.740;22.908;2023-04-25T01:13:20;92259.91;;;8.49;85.09
45793;BME280;31495;42.740;22.908;2023-04-25T01:14:20;92321.84;;;8.91;85.17
45793;BME280;31495;42.740;22.908;2023-04-25T01:15:19;92309.34;;;8.76;85.28
45793;BME280;31495;42.740;22.908;2023-04-25T01:16:19;92303.38;;;8.75;85.30
45793;BME280;31495;42.740;22.908;2023-04-25T01:17:19;92290.56;;;8.69;85.42
45793;BME280;31495;42.740;22.908;2023-04-25T01:18:20;92316.56;;;8.86;85.83
45793;BME280;31495;42.740;22.908;2023-04-25T01:19:20;92315.19;;;8.83;85.91
45793;BME280;31495;42.740;22.908;2023-04-25T01:20:21;92324.22;;;8.92;85.81
45793;BME280;31495;42.740;22.908;2023-04-25T01:21:22;92312.59;;;8.71;85.95
45793;BME280;31495;42.740;22.908;2023-04-25T01:22:21;92324.09;;;8.87;85.88
45793;BME280;31495;42.740;22.908;2023-04-25T01:23:22;92325.72;;;8.81;86.37
45793;BME280;31495;42.740;22.908;2023-04-25T01:24:22;92321.22;;;8.77;86.26
45793;BME280;31495;42.740;22.908;2023-04-25T01:25:22;92322.16;;;8.82;86.43
45793;BME280;31495;42.740;22.908;2023-04-25T01:26:22;92293.81;;;8.64;86.25
45793;BME280;31495;42.740;22.908;2023-04-25T01:27:22;92329.91;;;8.82;85.83
45793;BME280;31495;42.740;22.908;2023-04-25T01:28:22;92308.41;;;8.70;86.07
45793;BME280;31495;42.740;22.908;2023-04-25T01:29:22;92331.25;;;8.85;86.06
45793;BME280;31495;42.740;22.908;2023-04-25T01:30:24;92286.03;;;8.52;85.87
45793;BME280;31495;42.740;22.908;2023-04-25T01:31:25;92303.00;;;8.60;86.00
45793;BME280;31495;42.740;22.908;2023-04-25T01:32:26;92296.00;;;8.49;85.88
45793;BME280;31495;42.740;22.908;2023-04-25T01:33:25;92325.56;;;8.64;86.62
45793;BME280;31495;42.740;22.908;2023-04-25T01:34:25;92317.47;;;8.61;86.71
45793;BME280;31495;42.740;22.908;2023-04-25T01:35:25;92296.00;;;8.49;86.89
45793;BME280;31495;42.740;22.908;2023-04-25T01:36:24;92314.19;;;8.54;87.22
45793;BME280;31495;42.740;22.908;2023-04-25T01:37:24;92306.88;;;8.51;87.51
45793;BME280;31495;42.740;22.908;2023-04-25T01:38:23;92313.19;;;8.55;87.52
45793;BME280;31495;42.740;22.908;2023-04-25T01:39:23;92319.53;;;8.52;87.81
45793;BME280;31495;42.740;22.908;2023-04-25T01:40:24;92313.41;;;8.53;87.72
45793;BME280;31495;42.740;22.908;2023-04-25T01:41:24;92314.94;;;8.54;87.94
45793;BME280;31495;42.740;22.908;2023-04-25T01:42:23;92285.81;;;8.35;88.09
45793;BME280;31495;42.740;22.908;2023-04-25T01:43:24;92283.81;;;8.37;88.11
45793;BME280;31495;42.740;22.908;2023-04-25T01:44:23;92264.13;;;8.24;87.92
45793;BME280;31495;42.740;22.908;2023-04-25T01:45:23;92311.03;;;8.52;88.24
45793;BME280;31495;42.740;22.908;2023-04-25T01:46:22;92283.38;;;8.40;88.32
45793;BME280;31495;42.740;22.908;2023-04-25T01:47:21;92297.03;;;8.41;88.62
45793;BME280;31495;42.740;22.908;2023-04-25T01:48:21;92270.38;;;8.17;89.16
45793;BME280;31495;42.740;22.908;2023-04-25T01:49:20;92293.72;;;8.22;89.51
45793;BME280;31495;42.740;22.908;2023-04-25T01:50:22;92261.91;;;8.09;89.73
45793;BME280;31495;42.740;22.908;2023-04-25T01:51:22;92277.22;;;8.23;89.50
45793;BME280;31495;42.740;22.908;2023-04-25T01:52:22;92305.53;;;8.48;89.42
45793;BME280;31495;42.740;22.908;2023-04-25T01:53:21;92285.25;;;8.33;89.18
45793;BME280;31495;42.740;22.908;2023-04-25T01:54:21;92306.78;;;8.39;89.29
45793;BME280;31495;42.740;22.908;2023-04-25T01:55:21;92288.41;;;8.35;89.34
45793;BME280;31495;42.740;22.908;2023-04-25T01:56:20;92308.53;;;8.45;89.05
45793;BME280;31495;42.740;22.908;2023-04-25T01:57:20;92299.78;;;8.46;88.81
45793;BME280;31495;42.740;22.908;2023-04-25T01:58:20;92278.72;;;8.31;88.91
45793;BME280;31495;42.740;22.908;2023-04-25T01:59:19;92270.44;;;8.28;88.83
45793;BME280;31495;42.740;22.908;2023-04-25T02:00:22;92306.78;;;8.57;88.47
45793;BME280;31495;42.740;22.908;2023-04-25T02:01:21;92311.94;;;8.57;88.24
45793;BME280;31495;42.740;22.908;2023-04-25T02:02:21;92304.22;;;8.57;87.95
45793;BME280;31495;42.740;22.908;2023-04-25T02:03:20;92283.88;;;8.49;87.88
45793;BME280;31495;42.740;22.908;2023-04-25T02:04:20;92294.56;;;8.53;87.70
45793;BME280;31495;42.740;22.908;2023-04-25T02:05:19;92295.47;;;8.58;86.99
45793;BME280;31495;42.740;22.908;2023-04-25T02:06:20;92295.69;;;8.57;86.67
45793;BME280;31495;42.740;22.908;2023-04-25T02:07:20;92280.88;;;8.52;86.51
45793;BME280;31495;42.740;22.908;2023-04-25T02:08:19;92279.09;;;8.53;86.20
45793;BME280;31495;42.740;22.908;2023-04-25T02:09:19;92287.53;;;8.60;86.22
45793;BME280;31495;42.740;22.908;2023-04-25T02:10:19;92259.69;;;8.32;86.07
45793;BME280;31495;42.740;22.908;2023-04-25T02:11:19;92270.00;;;8.32;85.95
45793;BME280;31495;42.740;22.908;2023-04-25T02:12:19;92288.53;;;8.40;86.22
45793;BME280;31495;42.740;22.908;2023-04-25T02:13:18;92265.56;;;8.20;86.04
45793;BME280;31495;42.740;22.908;2023-04-25T02:14:18;92239.09;;;8.13;85.56
45793;BME280;31495;42.740;22.908;2023-04-25T02:15:17;92294.06;;;8.44;85.43
45793;BME280;31495;42.740;22.908;2023-04-25T02:16:16;92285.94;;;8.40;85.83
45793;BME280;31495;42.740;22.908;2023-04-25T02:17:17;92275.06;;;8.38;85.83
45793;BME280;31495;42.740;22.908;2023-04-25T02:18:17;92259.09;;;8.29;85.77
45793;BME280;31495;42.740;22.908;2023-04-25T02:19:16;92276.06;;;8.37;85.58
45793;BME280;31495;42.740;22.908;2023-04-25T02:20:16;92254.47;;;8.20;85.19
45793;BME280;31495;42.740;22.908;2023-04-25T02:21:16;92276.28;;;8.36;85.38
45793;BME280;31495;42.740;22.908;2023-04-25T02:22:15;92275.84;;;8.39;85.39
45793;BME280;31495;42.740;22.908;2023-04-25T02:23:15;92272.72;;;8.37;85.05
45793;BME280;31495;42.740;22.908;2023-04-25T02:24:14;92270.34;;;8.35;84.93
45793;BME280;31495;42.740;22.908;2023-04-25T02:25:14;92277.03;;;8.43;85.00
45793;BME280;31495;42.740;22.908;2023-04-25T02:26:15;92261.03;;;8.34;85.05
45793;BME280;31495;42.740;22.908;2023-04-25T02:27:14;92274.88;;;8.40;85.13
45793;BME280;31495;42.740;22.908;2023-04-25T02:28:14;92233.38;;;8.11;84.92
45793;BME280;31495;42.740;22.908;2023-04-25T02:29:14;92250.69;;;8.22;85.22
45793;BME280;31495;42.740;22.908;2023-04-25T02:30:14;92245.03;;;8.14;85.10
45793;BME280;31495;42.740;22.908;2023-04-25T02:31:14;92252.69;;;8.20;85.57
45793;BME280;31495;42.740;22.908;2023-04-25T02:32:13;92268.06;;;8.27;85.76
45793;BME280;31495;42.740;22.908;2023-04-25T02:33:13;92265.63;;;8.32;86.07
45793;BME280;31495;42.740;22.908;2023-04-25T02:34:16;92264.63;;;8.33;86.01
45793;BME280;31495;42.740;22.908;2023-04-25T02:35:15;92244.88;;;8.27;85.54
45793;BME280;31495;42.740;22.908;2023-04-25T02:36:15;92259.47;;;8.33;85.38
45793;BME280;31495;42.740;22.908;2023-04-25T02:37:14;92270.56;;;8.34;85.24
45793;BME280;31495;42.740;22.908;2023-04-25T02:38:14;92271.78;;;8.31;85.18
45793;BME280;31495;42.740;22.908;2023-04-25T02:39:14;92270.44;;;8.28;85.30
45793;BME280;31495;42.740;22.908;2023-04-25T02:40:13;92272.06;;;8.23;85.04
45793;BME280;31495;42.740;22.908;2023-04-25T02:41:13;92240.91;;;7.94;84.30
45793;BME280;31495;42.740;22.908;2023-04-25T02:42:12;92275.59;;;7.91;84.12
45793;BME280;31495;42.740;22.908;2023-04-25T02:43:11;92276.59;;;7.90;84.49
45793;BME280;31495;42.740;22.908;2023-04-25T02:44:11;92288.88;;;7.88;84.83
45793;BME280;31495;42.740;22.908;2023-04-25T02:45:10;92249.41;;;7.76;84.85
45793;BME280;31495;42.740;22.908;2023-04-25T02:46:10;92278.47;;;8.02;85.00
45793;BME280;31495;42.740;22.908;2023-04-25T02:47:09;92279.38;;;8.07;84.86
45793;BME280;31495;42.740;22.908;2023-04-25T02:48:09;92284.91;;;8.11;85.24
45793;BME280;31495;42.740;22.908;2023-04-25T02:49:08;92279.09;;;8.16;85.44
45793;BME280;31495;42.740;22.908;2023-04-25T02:50:08;92277.16;;;8.11;85.48
45793;BME280;31495;42.740;22.908;2023-04-25T02:51:08;92283.69;;;8.14;85.52
45793;BME280;31495;42.740;22.908;2023-04-25T02:52:07;92233.53;;;7.79;85.77
45793;BME280;31495;42.740;22.908;2023-04-25T02:53:07;92283.47;;;8.15;85.77
45793;BME280;31495;42.740;22.908;2023-04-25T02:54:07;92139.63;;;7.26;85.79
45793;BME280;31495;42.740;22.908;2023-04-25T02:55:06;92276.59;;;8.27;86.00
45793;BME280;31495;42.740;22.908;2023-04-25T02:56:06;92243.66;;;8.11;85.67
45793;BME280;31495;42.740;22.908;2023-04-25T02:57:06;92274.34;;;8.31;85.73
45793;BME280;31495;42.740;22.908;2023-04-25T02:58:06;92276.16;;;8.31;85.72
45793;BME280;31495;42.740;22.908;2023-04-25T02:59:05;92249.75;;;8.17;85.39
45793;BME280;31495;42.740;22.908;2023-04-25T03:00:05;92263.47;;;8.29;85.21
45793;BME280;31495;42.740;22.908;2023-04-25T03:01:05;92263.97;;;8.38;84.91
45793;BME280;31495;42.740;22.908;2023-04-25T03:02:05;92222.63;;;8.14;84.57
45793;BME280;31495;42.740;22.908;2023-04-25T03:03:04;92236.81;;;8.23;84.81
45793;BME280;31495;42.740;22.908;2023-04-25T03:04:04;92240.72;;;8.26;84.83
45793;BME280;31495;42.740;22.908;2023-04-25T03:05:03;92257.25;;;8.37;85.35
45793;BME280;31495;42.740;22.908;2023-04-25T03:06:03;92273.69;;;8.54;85.25
45793;BME280;31495;42.740;22.908;2023-04-25T03:07:03;92241.91;;;8.42;84.79
45793;BME280;31495;42.740;22.908;2023-04-25T03:08:03;92252.03;;;8.43;84.81
45793;BME280;31495;42.740;22.908;2023-04-25T03:09:03;92204.06;;;8.24;84.68
45793;BME280;31495;42.740;22.908;2023-04-25T03:10:03;92238.94;;;8.45;84.76
45793;BME280;31495;42.740;22.908;2023-04-25T03:11:03;92234.34;;;8.47;85.07
45793;BME280;31495;42.740;22.908;2023-04-25T03:12:02;92224.03;;;8.28;84.92
45793;BME280;31495;42.740;22.908;2023-04-25T03:13:02;92272.28;;;8.58;84.91
45793;BME280;31495;42.740;22.908;2023-04-25T03:14:02;92263.09;;;8.62;84.91
45793;BME280;31495;42.740;22.908;2023-04-25T03:15:01;92244.78;;;8.52;83.81
45793;BME280;31495;42.740;22.908;2023-04-25T03:16:01;92269.72;;;8.70;83.77
45793;BME280;31495;42.740;22.908;2023-04-25T03:17:01;92261.66;;;8.67;83.56
45793;BME280;31495;42.740;22.908;2023-04-25T03:18:00;92178.63;;;8.16;83.58
45793;BME280;31495;42.740;22.908;2023-04-25T03:19:00;92238.06;;;8.51;83.38
45793;BME280;31495;42.740;22.908;2023-04-25T03:20:01;92263.56;;;8.71;83.47
45793;BME280;31495;42.740;22.908;2023-04-25T03:21:01;92261.00;;;8.71;83.41
45793;BME280;31495;42.740;22.908;2023-04-25T03:22:00;92219.50;;;8.42;83.67
45793;BME280;31495;42.740;22.908;2023-04-25T03:22:59;92264.47;;;8.77;83.87
45793;BME280;31495;42.740;22.908;2023-04-25T03:24:02;92263.16;;;8.74;83.93
45793;BME280;31495;42.740;22.908;2023-04-25T03:25:02;92260.69;;;8.79;84.13
45793;BME280;31495;42.740;22.908;2023-04-25T03:26:02;92260.47;;;8.81;84.10
45793;BME280;31495;42.740;22.908;2023-04-25T03:27:01;92270.03;;;8.92;84.06
45793;BME280;31495;42.740;22.908;2023-04-25T03:28:00;92265.75;;;8.86;84.06
45793;BME280;31495;42.740;22.908;2023-04-25T03:29:00;92242.38;;;8.69;84.25
45793;BME280;31495;42.740;22.908;2023-04-25T03:29:59;92266.66;;;8.92;83.93
45793;BME280;31495;42.740;22.908;2023-04-25T03:30:59;92251.84;;;8.87;84.08
45793;BME280;31495;42.740;22.908;2023-04-25T03:31:58;92264.44;;;8.95;84.23
45793;BME280;31495;42.740;22.908;2023-04-25T03:32:58;92260.50;;;8.93;84.45
45793;BME280;31495;42.740;22.908;2023-04-25T03:33:57;92226.09;;;8.69;84.64
45793;BME280;31495;42.740;22.908;2023-04-25T03:34:56;92261.03;;;8.83;84.76
45793;BME280;31495;42.740;22.908;2023-04-25T03:35:56;92202.47;;;8.41;85.25
45793;BME280;31495;42.740;22.908;2023-04-25T03:36:56;92241.03;;;8.67;85.44
45793;BME280;31495;42.740;22.908;2023-04-25T03:37:55;92246.09;;;8.73;85.57
45793;BME280;31495;42.740;22.908;2023-04-25T03:38:54;92262.31;;;8.92;85.39
45793;BME280;31495;42.740;22.908;2023-04-25T03:39:54;92254.22;;;8.89;85.45
45793;BME280;31495;42.740;22.908;2023-04-25T03:40:53;92239.72;;;8.76;85.58
45793;BME280;31495;42.740;22.908;2023-04-25T03:41:53;92248.69;;;8.85;85.54
45793;BME280;31495;42.740;22.908;2023-04-25T03:42:52;92264.22;;;8.97;85.59
45793;BME280;31495;42.740;22.908;2023-04-25T03:43:52;92244.78;;;8.94;85.33
45793;BME280;31495;42.740;22.908;2023-04-25T03:44:52;92255.13;;;9.06;84.71
45793;BME280;31495;42.740;22.908;2023-04-25T03:45:51;92240.19;;;8.96;84.61
45793;BME280;31495;42.740;22.908;2023-04-25T03:46:51;92233.69;;;8.94;84.89
45793;BME280;31495;42.740;22.908;2023-04-25T03:47:50;92239.84;;;8.93;84.99
45793;BME280;31495;42.740;22.908;2023-04-25T03:48:50;92251.97;;;8.92;85.07
45793;BME280;31495;42.740;22.908;2023-04-25T03:49:49;92247.72;;;8.98;85.32
45793;BME280;31495;42.740;22.908;2023-04-25T03:50:51;92247.25;;;8.89;85.61
45793;BME280;31495;42.740;22.908;2023-04-25T03:51:51;92233.00;;;8.87;85.73
45793;BME280;31495;42.740;22.908;2023-04-25T03:52:50;92245.00;;;8.93;85.79
45793;BME280;31495;42.740;22.908;2023-04-25T03:53:49;92251.28;;;8.85;86.06
45793;BME280;31495;42.740;22.908;2023-04-25T03:54:49;92211.03;;;8.54;86.08
45793;BME280;31495;42.740;22.908;2023-04-25T03:55:48;92225.63;;;8.48;86.25
45793;BME280;31495;42.740;22.908;2023-04-25T03:56:48;92218.09;;;8.46;86.12
45793;BME280;31495;42.740;22.908;2023-04-25T03:57:47;92227.06;;;8.56;85.79
45793;BME280;31495;42.740;22.908;2023-04-25T03:58:47;92256.94;;;8.63;85.06
45793;BME280;31495;42.740;22.908;2023-04-25T03:59:46;92247.47;;;8.57;85.11
45793;BME280;31495;42.740;22.908;2023-04-25T04:00:45;92254.22;;;8.58;85.24
45793;BME280;31495;42.740;22.908;2023-04-25T04:01:45;92254.13;;;8.65;84.94
45793;BME280;31495;42.740;22.908;2023-04-25T04:02:44;92242.91;;;8.59;85.47
45793;BME280;31495;42.740;22.908;2023-04-25T04:03:44;92252.03;;;8.74;85.60
45793;BME280;31495;42.740;22.908;2023-04-25T04:04:43;92246.53;;;8.70;85.44
45793;BME280;31495;42.740;22.908;2023-04-25T04:05:43;92213.06;;;8.52;85.40
45793;BME280;31495;42.740;22.908;2023-04-25T04:06:42;92217.13;;;8.41;84.70
45793;BME280;31495;42.740;22.908;2023-04-25T04:07:42;92246.63;;;8.63;84.61
45793;BME280;31495;42.740;22.908;2023-04-25T04:08:42;92260.22;;;8.71;84.92
45793;BME280;31495;42.740;22.908;2023-04-25T04:09:41;92240.25;;;8.66;85.27
45793;BME280;31495;42.740;22.908;2023-04-25T04:10:40;92235.28;;;8.53;84.85
45793;BME280;31495;42.740;22.908;2023-04-25T04:11:40;92249.84;;;8.59;84.95
45793;BME280;31495;42.740;22.908;2023-04-25T04:12:39;92251.78;;;8.63;85.28
45793;BME280;31495;42.740;22.908;2023-04-25T04:13:38;92240.19;;;8.54;85.92
45793;BME280;31495;42.740;22.908;2023-04-25T04:14:38;92231.66;;;8.54;86.45
45793;BME280;31495;42.740;22.908;2023-04-25T04:15:37;92237.88;;;8.64;86.50
45793;BME280;31495;42.740;22.908;2023-04-25T04:16:37;92241.94;;;8.72;86.92
45793;BME280;31495;42.740;22.908;2023-04-25T04:17:36;92240.84;;;8.80;86.54
45793;BME280;31495;42.740;22.908;2023-04-25T04:18:36;92252.97;;;8.91;86.51
45793;BME280;31495;42.740;22.908;2023-04-25T04:19:36;92227.38;;;8.78;86.60
45793;BME280;31495;42.740;22.908;2023-04-25T04:20:35;92229.75;;;8.79;86.49
45793;BME280;31495;42.740;22.908;2023-04-25T04:21:34;92160.31;;;8.36;86.95
45793;BME280;31495;42.740;22.908;2023-04-25T04:22:34;92251.16;;;8.92;87.33
45793;BME280;31495;42.740;22.908;2023-04-25T04:23:34;92164.66;;;8.23;89.04
45793;BME280;31495;42.740;22.908;2023-04-25T04:24:34;92250.16;;;8.81;89.84
45793;BME280;31495;42.740;22.908;2023-04-25T04:25:34;92245.66;;;8.88;89.75
45793;BME280;31495;42.740;22.908;2023-04-25T04:26:33;92228.28;;;8.83;89.50
45793;BME280;31495;42.740;22.908;2023-04-25T04:27:33;92253.44;;;9.00;89.62
45793;BME280;31495;42.740;22.908;2023-04-25T04:28:33;92250.09;;;9.11;89.39
45793;BME280;31495;42.740;22.908;2023-04-25T04:29:33;92254.81;;;9.14;89.31
45793;BME280;31495;42.740;22.908;2023-04-25T04:30:32;92253.16;;;9.20;88.91
45793;BME280;31495;42.740;22.908;2023-04-25T04:31:35;92242.25;;;9.18;88.91
45793;BME280;31495;42.740;22.908;2023-04-25T04:32:34;92259.53;;;9.29;88.73
45793;BME280;31495;42.740;22.908;2023-04-25T04:33:36;92244.50;;;9.26;88.39
45793;BME280;31495;42.740;22.908;2023-04-25T04:34:36;92238.44;;;9.20;87.94
45793;BME280;31495;42.740;22.908;2023-04-25T04:35:36;92238.88;;;9.29;88.06
45793;BME280;31495;42.740;22.908;2023-04-25T04:36:36;92221.50;;;9.25;87.74
45793;BME280;31495;42.740;22.908;2023-04-25T04:37:35;92235.44;;;9.24;87.30
45793;BME280;31495;42.740;22.908;2023-04-25T04:38:35;92224.88;;;9.13;87.26
45793;BME280;31495;42.740;22.908;2023-04-25T04:39:36;92211.38;;;9.11;87.05
45793;BME280;31495;42.740;22.908;2023-04-25T04:40:35;92257.88;;;9.23;87.12
45793;BME280;31495;42.740;22.908;2023-04-25T04:41:34;92252.59;;;9.30;87.10
45793;BME280;31495;42.740;22.908;2023-04-25T04:42:34;92238.44;;;9.20;86.97
45793;BME280;31495;42.740;22.908;2023-04-25T04:43:35;92251.13;;;9.34;86.68
45793;BME280;31495;42.740;22.908;2023-04-25T04:44:34;92251.69;;;9.24;86.78
45793;BME280;31495;42.740;22.908;2023-04-25T04:45:34;92225.41;;;9.04;86.93
45793;BME280;31495;42.740;22.908;2023-04-25T04:46:34;92256.28;;;9.22;87.26
45793;BME280;31495;42.740;22.908;2023-04-25T04:47:41;92231.25;;;8.99;87.26
45793;BME280;31495;42.740;22.908;2023-04-25T04:48:40;92265.34;;;9.13;87.68
45793;BME280;31495;42.740;22.908;2023-04-25T04:49:39;92224.69;;;8.85;87.79
45793;BME280;31495;42.740;22.908;2023-04-25T04:50:39;92226.84;;;8.88;87.98
45793;BME280;31495;42.740;22.908;2023-04-25T04:51:39;92264.13;;;9.15;87.91
45793;BME280;31495;42.740;22.908;2023-04-25T04:52:40;92238.44;;;8.97;87.61
45793;BME280;31495;42.740;22.908;2023-04-25T04:53:40;92269.63;;;9.19;87.45
45793;BME280;31495;42.740;22.908;2023-04-25T04:54:39;92262.22;;;9.11;87.05
45793;BME280;31495;42.740;22.908;2023-04-25T04:55:39;92255.34;;;9.05;87.41
45793;BME280;31495;42.740;22.908;2023-04-25T04:56:40;92269.09;;;9.17;87.68
45793;BME280;31495;42.740;22.908;2023-04-25T04:57:41;92241.13;;;9.02;87.96
45793;BME280;31495;42.740;22.908;2023-04-25T04:58:40;92272.22;;;9.19;87.96
45793;BME280;31495;42.740;22.908;2023-04-25T04:59:40;92267.16;;;9.12;88.12
45793;BME280;31495;42.740;22.908;2023-04-25T05:00:39;92262.22;;;9.11;87.79
45793;BME280;31495;42.740;22.908;2023-04-25T05:01:39;92241.91;;;9.02;88.07
45793;BME280;31495;42.740;22.908;2023-04-25T05:02:39;92252.91;;;9.10;88.79
45793;BME280;31495;42.740;22.908;2023-04-25T05:03:38;92266.84;;;9.20;88.79
45793;BME280;31495;42.740;22.908;2023-04-25T05:04:38;92256.19;;;9.17;88.97
45793;BME280;31495;42.740;22.908;2023-04-25T05:05:38;92256.94;;;9.17;89.05
45793;BME280;31495;42.740;22.908;2023-04-25T05:06:39;92268.88;;;9.30;89.10
45793;BME280;31495;42.740;22.908;2023-04-25T05:07:39;92272.78;;;9.33;89.17
45793;BME280;31495;42.740;22.908;2023-04-25T05:08:39;92250.13;;;9.23;89.02
45793;BME280;31495;42.740;22.908;2023-04-25T05:09:39;92203.63;;;8.99;88.87
45793;BME280;31495;42.740;22.908;2023-04-25T05:10:38;92218.25;;;9.17;88.62
45793;BME280;31495;42.740;22.908;2023-04-25T05:11:38;92233.72;;;9.29;88.34
45793;BME280;31495;42.740;22.908;2023-04-25T05:12:38;92262.50;;;9.45;88.54
45793;BME280;31495;42.740;22.908;2023-04-25T05:13:37;92235.31;;;9.30;88.71
45793;BME280;31495;42.740;22.908;2023-04-25T05:14:37;92247.44;;;9.30;89.11
45793;BME280;31495;42.740;22.908;2023-04-25T05:15:36;92247.13;;;9.38;88.55
45793;BME280;31495;42.740;22.908;2023-04-25T05:16:36;92258.44;;;9.49;88.38